createdAt,value
2023-01-13T00:08:20.896Z,0.03
2023-01-13T00:10:36.374Z,0.04
2023-01-13T00:15:27.739Z,0.03
2023-01-13T00:20:25.345Z,0.02
2023-01-13T00:28:10.968Z,0.03
2023-01-13T00:30:38.827Z,0.02
2023-01-13T00:32:52.625Z,0.03
2023-01-13T00:34:52.159Z,0.02
2023-01-13T00:37:40.313Z,0.01
2023-01-13T00:40:14.394Z,0.03
2023-01-13T00:42:34.269Z,0.04
2023-01-13T00:47:34.472Z,0.02
2023-01-13T00:50:14.534Z,0.03
2023-01-13T00:52:42.243Z,0.04
2023-01-13T00:56:50.684Z,0.03
2023-01-13T00:59:37.161Z,0.04
2023-01-13T01:04:27.683Z,0.03
2023-01-13T01:06:31.997Z,0.05
2023-01-13T01:12:02.930Z,0.03
2023-01-13T01:16:37.544Z,0.04
2023-01-13T01:19:36.219Z,0.05
2023-01-13T01:22:20.744Z,0.04
2023-01-13T01:24:51.371Z,0.03
2023-01-13T01:27:07.454Z,0.04
2023-01-13T01:34:37.122Z,0.03
2023-01-13T01:39:08.262Z,0.04
2023-01-13T01:42:05.231Z,0.03
2023-01-13T01:47:16.545Z,0.04
2023-01-13T01:49:31.308Z,0.03
2023-01-13T02:11:39.741Z,0.04
2023-01-13T02:16:25.810Z,0.05
2023-01-13T02:18:58.425Z,0.04
2023-01-13T02:21:17.478Z,0.03
2023-01-13T02:31:20.281Z,0.04
2023-01-13T02:38:13.984Z,0.03
2023-01-13T02:50:34.351Z,0.04
2023-01-13T02:55:07.136Z,0.03
2023-01-13T03:00:48.438Z,0.04
2023-01-13T03:03:18.038Z,0.05
2023-01-13T03:07:35.124Z,0.04
2023-01-13T03:13:00.516Z,0.03
2023-01-13T03:17:29.677Z,0.05
2023-01-13T03:20:25.783Z,0.04
2023-01-13T03:25:35.405Z,0.05
2023-01-13T03:29:48.659Z,0.03
2023-01-13T03:32:36.802Z,0.05
2023-01-13T03:37:30.597Z,0.04
2023-01-13T03:49:48.967Z,0.05
2023-01-13T03:51:46.801Z,0.03
2023-01-13T03:57:05.325Z,0.04
2023-01-13T04:09:22.372Z,0.05
2023-01-13T04:11:32.704Z,0.04
2023-01-13T04:14:31.540Z,0.03
2023-01-13T04:24:04.901Z,0.02
2023-01-13T04:37:00.097Z,0.03
2023-01-13T04:39:42.921Z,0.04
2023-01-13T04:44:26.149Z,0.03
2023-01-13T04:51:50.241Z,0.04
2023-01-13T04:56:17.408Z,0.05
2023-01-13T04:59:12.376Z,0.04
2023-01-13T05:01:53.561Z,0.03
2023-01-13T05:08:32.030Z,0.04
2023-01-13T05:18:21.500Z,0.06
2023-01-13T05:20:55.717Z,0.05
2023-01-13T05:23:15.857Z,0.04
2023-01-13T05:25:21.758Z,0.05
2023-01-13T05:37:33.007Z,0.04
2023-01-13T05:47:14.028Z,0.05
2023-01-13T05:55:09.643Z,0.06
2023-01-13T06:00:18.942Z,0.05
2023-01-13T06:07:50.489Z,0.06
2023-01-13T06:09:52.986Z,0.05
2023-01-13T06:12:43.726Z,0.04
2023-01-13T06:15:20.314Z,0.05
2023-01-13T06:17:43.164Z,0.06
2023-01-13T06:19:51.666Z,0.04
2023-01-13T06:22:48.462Z,0.05
2023-01-13T06:25:31.403Z,0.07
2023-01-13T06:32:15.872Z,0.06
2023-01-13T06:35:05.671Z,0.08
2023-01-13T06:37:39.585Z,0.09
2023-01-13T06:40:00.343Z,0.08
2023-01-13T06:42:07.217Z,0.09
2023-01-13T06:45:02.434Z,0.12
2023-01-13T06:47:43.490Z,0.13
2023-01-13T06:50:10.561Z,0.2
2023-01-13T06:52:23.565Z,0.49
2023-01-13T06:54:22.338Z,0.88
2023-01-13T06:57:09.703Z,1.19
2023-01-13T06:59:43.008Z,1.93
2023-01-13T07:02:02.205Z,2.68
2023-01-13T07:04:07.346Z,3.15
2023-01-13T07:07:00.770Z,5.88
2023-01-13T07:09:40.127Z,8.33
2023-01-13T07:12:05.387Z,11.83
2023-01-13T07:14:16.666Z,14.04
2023-01-13T07:16:13.859Z,19.1
2023-01-13T07:18:59.400Z,25.7
2023-01-13T07:21:30.781Z,28.23
2023-01-13T07:23:48.132Z,34.64
2023-01-13T07:25:51.366Z,39.64
2023-01-13T07:28:42.768Z,52.16
2023-01-13T07:31:20.484Z,59.58
2023-01-13T07:33:43.919Z,67.58
2023-01-13T07:35:53.469Z,78.5
2023-01-13T07:38:53.321Z,89.72
2023-01-13T07:41:35.179Z,110.48
2023-01-13T07:44:04.786Z,116.68
2023-01-13T07:46:20.508Z,132.88
2023-01-13T07:48:22.064Z,141.8
2023-01-13T07:51:12.037Z,151.72
2023-01-13T07:53:48.113Z,155.76
2023-01-13T07:56:09.872Z,160.08
2023-01-13T07:58:17.506Z,161.6
2023-01-13T08:01:13.775Z,157.52
2023-01-13T08:03:55.626Z,176.4
2023-01-13T08:06:23.486Z,168.1
2023-01-13T08:08:37.195Z,147.32
2023-01-13T08:10:37.044Z,133.92
2023-01-13T08:13:25.221Z,138.92
2023-01-13T08:15:59.254Z,157.8
2023-01-13T08:18:19.311Z,166.2
2023-01-13T08:20:25.003Z,198.7
2023-01-13T08:23:19.169Z,346.8
2023-01-13T08:26:00.888Z,405.6
2023-01-13T08:28:25.707Z,437.2
2023-01-13T08:30:37.752Z,422.4
2023-01-13T08:32:35.821Z,334
2023-01-13T08:35:22.294Z,376.9
2023-01-13T08:37:54.638Z,357.1
2023-01-13T08:40:12.843Z,328.8
2023-01-13T08:42:17.146Z,355.2
2023-01-13T08:45:09.702Z,357.4
2023-01-13T08:47:48.140Z,359.2
2023-01-13T08:50:12.738Z,371
2023-01-13T08:52:23.132Z,432.4
2023-01-13T08:55:21.960Z,466.2
2023-01-13T08:58:15.168Z,423.8
2023-01-13T09:00:37.322Z,559.2
2023-01-13T09:02:53.745Z,611.2
2023-01-13T09:04:56.269Z,555
2023-01-13T09:07:47.119Z,476
2023-01-13T09:10:23.773Z,523
2023-01-13T09:12:45.918Z,549.4
2023-01-13T09:14:54.534Z,545.4
2023-01-13T09:17:51.546Z,665.6
2023-01-13T09:20:34.275Z,732.1
2023-01-13T09:23:03.117Z,912.3
2023-01-13T09:25:17.807Z,1139.8
2023-01-13T09:27:18.318Z,1143
2023-01-13T09:30:07.440Z,1254
2023-01-13T09:32:42.280Z,1289.9
2023-01-13T09:35:03.126Z,1278
2023-01-13T09:37:09.949Z,1254
2023-01-13T09:40:05.235Z,1348.4
2023-01-13T09:42:46.354Z,965.4
2023-01-13T09:45:13.316Z,1358.7
2023-01-13T09:47:26.265Z,1356.1
2023-01-13T09:49:25.166Z,1196.8
2023-01-13T09:52:12.423Z,1403.5
2023-01-13T09:54:45.758Z,1438.7
2023-01-13T09:57:04.957Z,1516.1
2023-01-13T09:59:09.984Z,1578.2
2023-01-13T10:02:03.581Z,1576.9
2023-01-13T10:04:42.678Z,1121.6
2023-01-13T10:07:07.952Z,1221.1
2023-01-13T10:09:19.286Z,1440.6
2023-01-13T10:11:16.524Z,1642
2023-01-13T10:14:02.062Z,1095
2023-01-13T10:16:33.382Z,642.5
2023-01-13T10:18:50.850Z,884.1
2023-01-13T10:20:54.065Z,1421.4
2023-01-13T10:23:46.049Z,1424.6
2023-01-13T10:26:23.550Z,1441.2
2023-01-13T10:28:47.101Z,1451.5
2023-01-13T10:30:56.565Z,1468.1
2023-01-13T10:33:54.597Z,1488
2023-01-13T10:36:38.507Z,1552
2023-01-13T10:39:08.241Z,1670
2023-01-13T10:41:23.705Z,1962
2023-01-13T10:43:25.291Z,1921
2023-01-13T10:46:15.379Z,2119
2023-01-13T10:48:51.072Z,2003
2023-01-13T10:51:12.879Z,1562.8
2023-01-13T10:53:20.631Z,1213.4
2023-01-13T10:56:16.283Z,1763
2023-01-13T10:58:58.378Z,1302.7
2023-01-13T11:01:26.564Z,1352.9
2023-01-13T11:03:40.160Z,2345
2023-01-13T11:05:39.986Z,2533
2023-01-13T11:08:28.114Z,1591
2023-01-13T11:11:02.105Z,1331.8
2023-01-13T11:13:21.946Z,2179
2023-01-13T11:15:27.882Z,2059
2023-01-13T11:18:22.073Z,2480
2023-01-13T11:21:02.115Z,2823
2023-01-13T11:23:28.339Z,2634
2023-01-13T11:27:38.309Z,2610
2023-01-13T11:30:24.721Z,1439.3
2023-01-13T11:32:56.906Z,1416.9
2023-01-13T11:35:15.021Z,2248
2023-01-13T11:37:19.230Z,2206
2023-01-13T11:40:11.871Z,1857
2023-01-13T11:42:50.294Z,1949
2023-01-13T11:45:14.654Z,2027
2023-01-13T11:47:24.660Z,1784
2023-01-13T11:50:23.421Z,1918
2023-01-13T11:53:07.950Z,2329
2023-01-13T11:55:38.527Z,1122.5
2023-01-13T11:57:55.145Z,2349
2023-01-13T11:59:57.319Z,1871
2023-01-13T12:02:48.282Z,1762
2023-01-13T12:05:25.149Z,1722
2023-01-13T12:07:47.486Z,2181
2023-01-13T12:09:56.098Z,883.2
2023-01-13T12:12:53.040Z,990
2023-01-13T12:15:35.781Z,889.2
2023-01-13T12:18:04.324Z,844.1
2023-01-13T12:20:19.121Z,760.9
2023-01-13T12:22:19.699Z,592.6
2023-01-13T12:25:08.662Z,483.6
2023-01-13T12:27:44.207Z,676.8
2023-01-13T12:30:04.444Z,2092
2023-01-13T12:32:11.147Z,1350.4
2023-01-13T12:35:06.324Z,1891
2023-01-13T12:37:47.411Z,1699
2023-01-13T12:42:26.757Z,1685
2023-01-13T12:44:25.679Z,1690
2023-01-13T12:47:12.792Z,1657
2023-01-13T12:49:45.933Z,1649
2023-01-13T12:52:05.105Z,1609.6
2023-01-13T12:54:10.095Z,1736
2023-01-13T12:57:03.464Z,2032
2023-01-13T12:59:42.856Z,1702
2023-01-13T13:02:08.133Z,1482.8
2023-01-13T13:04:19.345Z,1977
2023-01-13T13:06:16.480Z,1651
2023-01-13T13:09:03.814Z,1110.7
2023-01-13T13:11:33.306Z,1416.3
2023-01-13T13:13:50.480Z,1270
2023-01-13T13:15:53.740Z,1120.9
2023-01-13T13:18:45.280Z,447.3
2023-01-13T13:21:22.729Z,291.8
2023-01-13T13:23:46.284Z,162.8
2023-01-13T13:25:55.691Z,124.68
2023-01-13T13:28:53.291Z,187.1
2023-01-13T13:31:36.693Z,122.12
2023-01-13T13:34:06.319Z,100.2
2023-01-13T13:36:22.096Z,207.6
2023-01-13T13:38:23.401Z,266.2
2023-01-13T13:41:13.335Z,311.5
2023-01-13T13:43:49.593Z,167.9
2023-01-13T13:46:10.736Z,542.7
2023-01-13T13:48:18.380Z,1460.4
2023-01-13T13:51:14.599Z,1366.4
2023-01-13T13:53:56.581Z,1479
2023-01-13T13:56:26.230Z,1371.5
2023-01-13T13:58:38.347Z,1209.6
2023-01-13T14:00:37.983Z,1154.2
2023-01-13T14:03:26.144Z,1039.3
2023-01-13T14:06:00.180Z,1003.5
2023-01-13T14:08:20.003Z,979.5
2023-01-13T14:10:26.016Z,845.4
2023-01-13T14:13:20.314Z,731.2
2023-01-13T14:16:00.538Z,429.1
2023-01-13T14:18:26.445Z,465.1
2023-01-13T14:20:38.524Z,541.1
2023-01-13T14:22:36.032Z,498.5
2023-01-13T14:25:22.133Z,586
2023-01-13T14:27:54.326Z,799.3
2023-01-13T14:30:12.445Z,733.4
2023-01-13T14:32:16.385Z,649.7
2023-01-13T14:35:08.970Z,557.4
2023-01-13T14:37:47.307Z,576.4
2023-01-13T14:40:11.476Z,675.8
2023-01-13T14:42:21.797Z,652.4
2023-01-13T14:45:20.426Z,589.6
2023-01-13T14:48:04.856Z,570.5
2023-01-13T14:50:35.109Z,626.5
2023-01-13T14:52:51.472Z,574.5
2023-01-13T14:54:53.732Z,665.6
2023-01-13T14:57:44.290Z,566.5
2023-01-13T15:00:20.983Z,445.2
2023-01-13T15:02:43.572Z,541.4
2023-01-13T15:04:51.859Z,473.1
2023-01-13T15:07:48.695Z,409.2
2023-01-13T15:10:31.514Z,414.5
2023-01-13T15:13:00.084Z,366.5
2023-01-13T15:15:14.145Z,297.6
2023-01-13T15:17:14.652Z,307.1
2023-01-13T15:20:03.517Z,226.8
2023-01-13T15:22:38.199Z,200.2
2023-01-13T15:24:58.956Z,165.6
2023-01-13T15:27:05.587Z,117.36
2023-01-13T15:30:00.554Z,88.8
2023-01-13T15:32:41.563Z,68.64
2023-01-13T15:35:08.538Z,58.92
2023-01-13T15:37:21.233Z,32.5
2023-01-13T15:39:20.063Z,30.88
2023-01-13T15:42:07.233Z,26.1
2023-01-13T15:44:21.349Z,22.58
2023-01-13T15:46:21.171Z,22.65
2023-01-13T15:49:09.380Z,19.68
2023-01-13T15:51:43.612Z,15.41
2023-01-13T15:54:03.767Z,11.57
2023-01-13T15:56:09.707Z,10.94
2023-01-13T15:59:04.215Z,9.56
2023-01-13T16:01:44.608Z,6.99
2023-01-13T16:04:10.794Z,6.17
2023-01-13T16:06:22.693Z,4.86
2023-01-13T16:08:20.775Z,3.96
2023-01-13T16:11:07.209Z,2.5
2023-01-13T16:13:39.453Z,1.65
2023-01-13T16:15:57.866Z,1.14
2023-01-13T16:18:01.987Z,0.81
2023-01-13T16:20:54.568Z,0.55
2023-01-13T16:23:33.256Z,0.42
2023-01-13T16:25:57.701Z,0.33
2023-01-13T16:28:08.033Z,0.27
2023-01-13T16:31:06.897Z,0.19
2023-01-13T16:33:51.591Z,0.18
2023-01-13T16:36:22.124Z,0.16
2023-01-13T16:40:41.088Z,0.15
2023-01-13T16:43:32.281Z,0.14
2023-01-13T16:48:31.410Z,0.13
2023-01-13T16:50:40.107Z,0.14
2023-01-13T16:53:37.056Z,0.1
2023-01-13T16:58:48.515Z,0.09
2023-01-13T17:01:03.253Z,0.1
2023-01-13T17:03:03.958Z,0.09
2023-01-13T17:05:53.053Z,0.08
2023-01-13T17:08:28.035Z,0.1
2023-01-13T17:10:48.892Z,0.11
2023-01-13T17:12:56.104Z,0.09
2023-01-13T17:15:51.063Z,0.08
2023-01-13T17:18:32.093Z,0.09
2023-01-13T17:20:59.228Z,0.08
2023-01-13T17:23:12.225Z,0.09
2023-01-13T17:25:11.073Z,0.1
2023-01-13T17:27:58.550Z,0.09
2023-01-13T17:30:31.887Z,0.08
2023-01-13T17:34:56.337Z,0.09
2023-01-13T17:40:29.331Z,0.08
2023-01-13T17:45:05.918Z,0.07
2023-01-13T17:47:03.039Z,0.09
2023-01-13T17:54:37.132Z,0.1
2023-01-13T17:56:40.351Z,0.08
2023-01-13T17:59:32.113Z,0.09
2023-01-13T18:02:09.903Z,0.07
2023-01-13T18:06:42.871Z,0.08
2023-01-13T18:09:40.800Z,0.07
2023-01-13T18:17:09.714Z,0.08
2023-01-13T18:19:11.218Z,0.09
2023-01-13T18:29:06.375Z,0.07
2023-01-13T18:34:44.545Z,0.06
2023-01-13T18:37:12.387Z,0.07
2023-01-13T18:46:47.652Z,0.06
2023-01-13T19:06:10.823Z,0.07
2023-01-13T19:08:43.082Z,0.06
2023-01-13T19:11:01.204Z,0.07
2023-01-13T19:13:05.410Z,0.06
2023-01-13T19:21:00.892Z,0.07
2023-01-13T19:28:54.753Z,0.08
2023-01-13T19:31:25.486Z,0.07
2023-01-13T19:33:41.590Z,0.08
2023-01-13T19:35:44.144Z,0.07
2023-01-13T19:41:11.837Z,0.08
2023-01-13T19:45:43.190Z,0.07
2023-01-13T19:53:52.200Z,0.04
2023-01-13T20:03:32.190Z,0.03
2023-01-13T20:05:53.174Z,0.04
2023-01-13T20:08:00.140Z,0.03
2023-01-13T20:10:55.555Z,0.04
2023-01-13T20:25:35.701Z,0.03
2023-01-13T20:35:32.901Z,0.04
2023-01-13T20:40:09.154Z,0.03
2023-01-13T20:47:23.215Z,0.04
2023-01-13T20:49:40.616Z,0.03
2023-01-13T20:51:43.883Z,0.02
2023-01-13T20:54:35.448Z,0.03
2023-01-13T20:57:13.151Z,0.02
2023-01-13T21:01:46.197Z,0.03
2023-01-13T21:04:44.215Z,0.02
2023-01-13T21:17:03.893Z,0.01
2023-01-13T21:24:09.152Z,0.02
2023-01-13T21:29:47.165Z,0.03
2023-01-13T21:32:15.012Z,0.02
2023-01-13T21:36:28.613Z,0.03
2023-01-13T21:39:16.740Z,0.05
2023-01-13T21:41:50.661Z,0.03
2023-01-13T21:44:10.448Z,0.04
2023-01-13T21:46:16.340Z,0.02
2023-01-13T21:51:50.533Z,0.03
2023-01-13T21:54:16.689Z,0.02
2023-01-13T22:03:45.208Z,0.01
2023-01-13T22:10:59.643Z,0.02
2023-01-13T22:13:38.016Z,0.01
2023-01-13T22:18:12.541Z,0.02
2023-01-13T22:26:26.199Z,0.04
2023-01-13T22:28:42.668Z,0.03
2023-01-13T22:30:44.894Z,0.02
2023-01-13T22:33:35.844Z,0.04
2023-01-13T22:48:52.196Z,0.03
2023-01-13T22:55:56.699Z,0.04
2023-01-13T23:05:53.944Z,0.03
2023-01-13T23:18:00.864Z,0.02
2023-01-13T23:24:58.072Z,0.03
